Colma, California
Current Conditions -  °F | °C
As of 3:56 AM on Thursday 27 Nov 2014 (Local Time) from KSFO Reporting Station
Broken Clouds Broken Clouds  
Wind Chill: 57°   Ceiling: 25000
Heat Index: 57°   Visibility: 10mi
Dew Point: 55°   Wind: 3mph
Humidity: 93%   Direction: 30°NNE
Pressure: 30.17"   Gusts: NA
Location:  37.6927°N, 122.447°W
Report Text: KSFO 271156Z 03003KT 10SM SCT180 BKN250 14/13 A3017 RMK AO2 SLP217 T01390128 10144 20117 58007
Loading
Personal Weather Stations






























Interactive Weather Map New forecast layout! Learn more

10-Day Weather Forecast

Advertisements
Track Severe Weather on mobile